PST,Max TemperatureF,Mean TemperatureF,Min TemperatureF,Max Dew PointF,MeanDew PointF,Min DewpointF,Max Humidity, Mean Humidity, Min Humidity, Max Sea Level PressureIn, Mean Sea Level PressureIn, Min Sea Level PressureIn, Max VisibilityMiles, Mean VisibilityMiles, Min VisibilityMiles, Max Wind SpeedMPH, Mean Wind SpeedMPH, Max Gust SpeedMPH,PrecipitationIn, CloudCover, Events, WindDirDegrees
2013-12-1,46,41,36,42,36,32,97,89,76,30.11,29.84,29.67,10,3,0,12,2,21,0.42,7,Fog-Rain,283
2013-12-2,41,36,30,34,25,19,79,66,49,30.00,29.80,29.67,10,10,9,39,18,48,0.00,3,,308
2013-12-3,39,29,19,24,14,8,85,56,32,30.31,30.20,30.03,10,10,9,15,5,,0.00,4,,23
2013-12-4,30,20,10,14,9,5,80,67,41,30.38,30.34,30.28,10,10,10,7,2,,0.00,0,,116
2013-12-5,23,16,10,10,7,4,81,67,55,30.35,30.32,30.29,10,10,10,8,2,,0.00,5,,116
2013-12-6,21,16,12,9,6,0,77,61,40,30.30,30.26,30.21,10,10,10,18,5,28,0.00,8,,53
2013-12-7,21,11,1,2,-3,-6,73,58,29,30.42,30.35,30.25,10,10,10,7,2,,0.00,0,,352
2013-12-8,21,12,3,3,0,-5,77,64,42,30.56,30.48,30.41,10,10,10,7,2,,0.00,2,,94
2013-12-9,37,22,6,23,8,0,77,64,45,30.52,30.44,30.33,10,10,7,26,5,39,0.00,0,,136
2013-12-10,39,32,21,23,21,15,78,62,45,30.43,30.38,30.32,10,10,10,22,14,26,0.00,2,,69
2013-12-11,33,24,15,18,14,8,78,67,52,30.47,30.42,30.35,10,10,10,9,4,,0.00,1,,83
2013-12-12,28,24,19,19,17,14,85,76,64,30.34,30.22,30.13,10,8,6,5,2,,0.00,3,,9
2013-12-13,51,34,18,37,25,13,85,76,54,30.40,30.30,30.15,10,7,4,24,4,,0.00,3,,302
2013-12-14,46,38,30,35,33,28,89,74,58,30.40,30.33,30.27,10,10,10,12,4,,0.00,2,,235
2013-12-15,55,47,39,40,37,31,71,63,51,30.31,30.24,30.19,10,10,10,39,17,53,0.00,1,,286
2013-12-16,55,42,27,35,30,22,82,63,38,30.40,30.35,30.31,10,10,10,20,13,24,0.00,0,,325
2013-12-17,45,33,21,37,27,18,85,79,68,30.29,30.13,30.00,10,9,6,20,5,,0.00,0,,7
2013-12-18,45,36,26,36,28,19,75,66,51,30.09,29.97,29.89,10,10,10,21,15,33,0.00,1,,312
2013-12-19,37,28,18,22,17,13,81,66,50,30.29,30.20,30.08,10,10,10,10,4,,0.00,0,,84
2013-12-20,43,36,30,35,26,14,88,70,48,30.07,29.76,29.57,10,8,2,29,8,38,0.03,5,Rain-Snow,279
2013-12-21,48,40,32,35,32,27,82,71,58,30.09,29.98,29.75,10,10,10,24,10,31,0.00,3,,314
2013-12-22,52,44,36,39,36,31,83,74,61,30.25,30.19,30.09,10,10,10,18,10,26,0.00,4,,278
2013-12-23,53,45,37,41,35,31,86,76,48,30.42,30.20,30.06,10,9,2,34,11,45,0.14,6,Rain,320
2013-12-24,46,36,25,31,27,20,85,74,52,30.55,30.52,30.44,10,10,10,21,8,26,0.00,0,,309
2013-12-25,36,28,21,28,22,15,88,82,70,30.56,30.49,30.43,10,8,4,7,1,,0.00,1,,38
2013-12-26,39,31,23,28,24,18,88,80,63,30.43,30.37,30.32,10,8,4,7,1,,0.00,0,,74
2013-12-27,41,31,21,34,23,16,93,86,67,30.30,30.20,30.09,10,3,0,15,3,,0.00,6,Fog,342
2013-12-28,50,38,27,31,28,22,81,66,44,30.48,30.41,30.30,10,10,10,17,10,,0.00,0,,343
2013-12-29,50,38,25,34,29,21,85,71,52,30.44,30.31,30.22,10,10,9,25,5,31,0.00,2,,294
2013-12-30,37,32,28,29,27,25,88,80,70,30.27,30.20,30.14,10,9,7,12,6,,0.00,3,,74
2013-12-31,51,40,30,36,31,24,85,70,52,30.33,30.22,30.15,10,10,7,22,7,33,0.00,3,,308